sensor_id;sensor_type;location;lat;lon;timestamp;temperature;humidity
11140;DHT22;5624;49.388;11.350;2023-08-17T00:00:10;20.30;90.80
11140;DHT22;5624;49.388;11.350;2023-08-17T00:02:42;20.20;90.90
11140;DHT22;5624;49.388;11.350;2023-08-17T00:05:07;20.20;91.00
11140;DHT22;5624;49.388;11.350;2023-08-17T00:07:33;20.30;90.90
11140;DHT22;5624;49.388;11.350;2023-08-17T00:10:00;20.30;90.80
11140;DHT22;5624;49.388;11.350;2023-08-17T00:12:25;20.40;90.20
11140;DHT22;5624;49.388;11.350;2023-08-17T00:14:52;20.40;90.30
11140;DHT22;5624;49.388;11.350;2023-08-17T00:17:17;20.60;89.50
11140;DHT22;5624;49.388;11.350;2023-08-17T00:19:43;20.60;89.30
11140;DHT22;5624;49.388;11.350;2023-08-17T00:22:09;20.60;89.40
11140;DHT22;5624;49.388;11.350;2023-08-17T00:24:34;20.50;89.40
11140;DHT22;5624;49.388;11.350;2023-08-17T00:27:00;20.60;89.00
11140;DHT22;5624;49.388;11.350;2023-08-17T00:29:26;20.70;88.70
11140;DHT22;5624;49.388;11.350;2023-08-17T00:31:51;20.60;88.80
11140;DHT22;5624;49.388;11.350;2023-08-17T00:34:18;20.60;89.10
11140;DHT22;5624;49.388;11.350;2023-08-17T00:36:44;20.50;89.50
11140;DHT22;5624;49.388;11.350;2023-08-17T00:39:09;20.50;89.60
11140;DHT22;5624;49.388;11.350;2023-08-17T00:41:35;20.40;90.00
11140;DHT22;5624;49.388;11.350;2023-08-17T00:44:01;20.50;89.30
11140;DHT22;5624;49.388;11.350;2023-08-17T00:46:27;20.50;88.80
11140;DHT22;5624;49.388;11.350;2023-08-17T00:48:54;20.60;88.50
11140;DHT22;5624;49.388;11.350;2023-08-17T00:51:25;20.60;88.20
11140;DHT22;5624;49.388;11.350;2023-08-17T00:53:53;20.60;88.40
11140;DHT22;5624;49.388;11.350;2023-08-17T00:56:20;20.60;88.60
11140;DHT22;5624;49.388;11.350;2023-08-17T00:58:45;20.50;89.00
11140;DHT22;5624;49.388;11.350;2023-08-17T01:01:11;20.40;89.40
11140;DHT22;5624;49.388;11.350;2023-08-17T01:03:39;20.40;89.50
11140;DHT22;5624;49.388;11.350;2023-08-17T01:06:06;20.40;89.70
11140;DHT22;5624;49.388;11.350;2023-08-17T01:08:31;20.40;90.20
11140;DHT22;5624;49.388;11.350;2023-08-17T01:11:05;20.30;90.60
11140;DHT22;5624;49.388;11.350;2023-08-17T01:13:50;20.20;90.70
11140;DHT22;5624;49.388;11.350;2023-08-17T01:16:26;20.20;90.50
11140;DHT22;5624;49.388;11.350;2023-08-17T01:18:54;20.20;90.90
11140;DHT22;5624;49.388;11.350;2023-08-17T01:21:21;20.30;90.60
11140;DHT22;5624;49.388;11.350;2023-08-17T01:23:50;20.30;90.30
11140;DHT22;5624;49.388;11.350;2023-08-17T01:26:16;20.30;90.30
11140;DHT22;5624;49.388;11.350;2023-08-17T01:28:46;20.20;91.00
11140;DHT22;5624;49.388;11.350;2023-08-17T01:31:17;20.20;91.20
11140;DHT22;5624;49.388;11.350;2023-08-17T01:33:48;20.30;90.90
11140;DHT22;5624;49.388;11.350;2023-08-17T01:36:22;20.20;91.30
11140;DHT22;5624;49.388;11.350;2023-08-17T01:38:52;20.20;91.30
11140;DHT22;5624;49.388;11.350;2023-08-17T01:41:20;20.10;91.50
11140;DHT22;5624;49.388;11.350;2023-08-17T01:43:48;20.10;92.60
11140;DHT22;5624;49.388;11.350;2023-08-17T01:46:14;20.10;93.10
11140;DHT22;5624;49.388;11.350;2023-08-17T01:48:41;20.00;93.10
11140;DHT22;5624;49.388;11.350;2023-08-17T01:51:07;20.00;93.30
11140;DHT22;5624;49.388;11.350;2023-08-17T01:53:33;19.90;93.70
11140;DHT22;5624;49.388;11.350;2023-08-17T01:55:59;19.70;94.00
11140;DHT22;5624;49.388;11.350;2023-08-17T01:58:25;19.60;94.80
11140;DHT22;5624;49.388;11.350;2023-08-17T02:00:50;19.50;95.30
11140;DHT22;5624;49.388;11.350;2023-08-17T02:03:16;19.50;95.30
11140;DHT22;5624;49.388;11.350;2023-08-17T02:05:47;19.40;95.70
11140;DHT22;5624;49.388;11.350;2023-08-17T02:08:13;19.30;96.60
11140;DHT22;5624;49.388;11.350;2023-08-17T02:10:39;19.20;97.00
11140;DHT22;5624;49.388;11.350;2023-08-17T02:13:04;19.10;97.80
11140;DHT22;5624;49.388;11.350;2023-08-17T02:15:30;19.00;98.50
11140;DHT22;5624;49.388;11.350;2023-08-17T02:17:59;18.90;98.90
11140;DHT22;5624;49.388;11.350;2023-08-17T02:20:24;18.80;99.60
11140;DHT22;5624;49.388;11.350;2023-08-17T02:22:50;18.80;99.90
11140;DHT22;5624;49.388;11.350;2023-08-17T02:25:15;18.70;99.90
11140;DHT22;5624;49.388;11.350;2023-08-17T02:27:41;18.70;99.90
11140;DHT22;5624;49.388;11.350;2023-08-17T02:30:07;18.70;99.90
11140;DHT22;5624;49.388;11.350;2023-08-17T02:32:33;18.60;99.90
11140;DHT22;5624;49.388;11.350;2023-08-17T02:34:58;18.70;99.90
11140;DHT22;5624;49.388;11.350;2023-08-17T02:37:24;18.70;99.90
11140;DHT22;5624;49.388;11.350;2023-08-17T02:39:50;18.80;99.90
11140;DHT22;5624;49.388;11.350;2023-08-17T02:42:15;18.90;99.90
11140;DHT22;5624;49.388;11.350;2023-08-17T02:44:41;19.00;99.90
11140;DHT22;5624;49.388;11.350;2023-08-17T02:47:07;19.00;99.90
11140;DHT22;5624;49.388;11.350;2023-08-17T02:49:32;19.10;99.90
11140;DHT22;5624;49.388;11.350;2023-08-17T02:51:58;19.10;99.70
11140;DHT22;5624;49.388;11.350;2023-08-17T02:54:23;19.20;99.40
11140;DHT22;5624;49.388;11.350;2023-08-17T02:56:49;19.10;99.30
11140;DHT22;5624;49.388;11.350;2023-08-17T02:59:14;19.10;99.40
11140;DHT22;5624;49.388;11.350;2023-08-17T03:01:40;19.20;99.10
11140;DHT22;5624;49.388;11.350;2023-08-17T03:04:06;19.20;98.80
11140;DHT22;5624;49.388;11.350;2023-08-17T03:06:31;19.20;98.60
11140;DHT22;5624;49.388;11.350;2023-08-17T03:08:57;19.20;98.50
11140;DHT22;5624;49.388;11.350;2023-08-17T03:11:22;19.20;98.70
11140;DHT22;5624;49.388;11.350;2023-08-17T03:13:48;19.20;98.90
11140;DHT22;5624;49.388;11.350;2023-08-17T03:16:14;19.20;99.00
11140;DHT22;5624;49.388;11.350;2023-08-17T03:18:41;19.20;99.60
11140;DHT22;5624;49.388;11.350;2023-08-17T03:21:06;19.20;99.50
11140;DHT22;5624;49.388;11.350;2023-08-17T03:23:32;19.10;99.70
11140;DHT22;5624;49.388;11.350;2023-08-17T03:25:58;19.10;99.90
11140;DHT22;5624;49.388;11.350;2023-08-17T03:28:23;19.10;99.90
11140;DHT22;5624;49.388;11.350;2023-08-17T03:30:50;19.10;99.90
11140;DHT22;5624;49.388;11.350;2023-08-17T03:33:19;19.00;99.90
11140;DHT22;5624;49.388;11.350;2023-08-17T03:35:45;19.10;99.90
11140;DHT22;5624;49.388;11.350;2023-08-17T03:38:10;19.10;99.90
11140;DHT22;5624;49.388;11.350;2023-08-17T03:40:36;19.10;99.90
11140;DHT22;5624;49.388;11.350;2023-08-17T03:43:01;19.20;98.90
11140;DHT22;5624;49.388;11.350;2023-08-17T03:45:27;19.40;97.30
11140;DHT22;5624;49.388;11.350;2023-08-17T03:47:53;19.40;96.50
11140;DHT22;5624;49.388;11.350;2023-08-17T03:50:19;19.40;97.20
11140;DHT22;5624;49.388;11.350;2023-08-17T03:52:44;19.40;97.20
11140;DHT22;5624;49.388;11.350;2023-08-17T03:55:10;19.30;97.60
11140;DHT22;5624;49.388;11.350;2023-08-17T03:57:35;19.40;97.30
11140;DHT22;5624;49.388;11.350;2023-08-17T04:00:01;19.40;97.10
11140;DHT22;5624;49.388;11.350;2023-08-17T04:02:26;19.40;96.70
11140;DHT22;5624;49.388;11.350;2023-08-17T04:04:52;19.40;97.10
11140;DHT22;5624;49.388;11.350;2023-08-17T04:07:21;19.40;97.00
11140;DHT22;5624;49.388;11.350;2023-08-17T04:09:47;19.50;96.70
11140;DHT22;5624;49.388;11.350;2023-08-17T04:12:13;19.50;96.70
11140;DHT22;5624;49.388;11.350;2023-08-17T04:14:38;19.50;96.60
11140;DHT22;5624;49.388;11.350;2023-08-17T04:17:04;19.50;96.00
11140;DHT22;5624;49.388;11.350;2023-08-17T04:19:32;19.60;95.40
11140;DHT22;5624;49.388;11.350;2023-08-17T04:21:58;19.70;94.90
11140;DHT22;5624;49.388;11.350;2023-08-17T04:24:23;19.70;94.60
11140;DHT22;5624;49.388;11.350;2023-08-17T04:26:49;19.70;94.40
11140;DHT22;5624;49.388;11.350;2023-08-17T04:29:15;19.70;94.10
11140;DHT22;5624;49.388;11.350;2023-08-17T04:31:40;19.70;94.30
11140;DHT22;5624;49.388;11.350;2023-08-17T04:34:06;19.60;94.50
11140;DHT22;5624;49.388;11.350;2023-08-17T04:36:31;19.60;95.00
11140;DHT22;5624;49.388;11.350;2023-08-17T04:38:57;19.60;94.80
11140;DHT22;5624;49.388;11.350;2023-08-17T04:41:23;19.50;95.30
11140;DHT22;5624;49.388;11.350;2023-08-17T04:43:48;19.50;95.80
11140;DHT22;5624;49.388;11.350;2023-08-17T04:46:14;19.40;96.00
11140;DHT22;5624;49.388;11.350;2023-08-17T04:48:40;19.40;96.10
11140;DHT22;5624;49.388;11.350;2023-08-17T04:51:05;19.40;96.00
11140;DHT22;5624;49.388;11.350;2023-08-17T04:53:31;19.40;96.20
11140;DHT22;5624;49.388;11.350;2023-08-17T04:55:58;19.30;96.70
11140;DHT22;5624;49.388;11.350;2023-08-17T04:58:24;19.30;96.90
11140;DHT22;5624;49.388;11.350;2023-08-17T05:00:50;19.30;96.60
11140;DHT22;5624;49.388;11.350;2023-08-17T05:03:16;19.30;97.00
11140;DHT22;5624;49.388;11.350;2023-08-17T05:05:42;19.30;96.70
11140;DHT22;5624;49.388;11.350;2023-08-17T05:08:07;19.30;96.60
11140;DHT22;5624;49.388;11.350;2023-08-17T05:10:33;19.40;96.30
11140;DHT22;5624;49.388;11.350;2023-08-17T05:12:59;19.40;96.10
11140;DHT22;5624;49.388;11.350;2023-08-17T05:15:24;19.40;96.20
11140;DHT22;5624;49.388;11.350;2023-08-17T05:17:50;19.40;95.60
11140;DHT22;5624;49.388;11.350;2023-08-17T05:20:16;19.40;95.10
11140;DHT22;5624;49.388;11.350;2023-08-17T05:22:41;19.50;95.00
11140;DHT22;5624;49.388;11.350;2023-08-17T05:25:07;19.50;94.60
11140;DHT22;5624;49.388;11.350;2023-08-17T05:27:33;19.50;94.10
11140;DHT22;5624;49.388;11.350;2023-08-17T05:29:58;19.60;94.30
11140;DHT22;5624;49.388;11.350;2023-08-17T05:32:24;19.70;93.20
11140;DHT22;5624;49.388;11.350;2023-08-17T05:34:49;19.80;93.00
11140;DHT22;5624;49.388;11.350;2023-08-17T05:37:15;19.90;92.80
11140;DHT22;5624;49.388;11.350;2023-08-17T05:39:41;20.10;91.60
11140;DHT22;5624;49.388;11.350;2023-08-17T05:42:07;20.30;89.60
11140;DHT22;5624;49.388;11.350;2023-08-17T05:44:32;20.40;88.70
11140;DHT22;5624;49.388;11.350;2023-08-17T05:46:58;20.40;88.70
11140;DHT22;5624;49.388;11.350;2023-08-17T05:49:23;20.40;88.30
11140;DHT22;5624;49.388;11.350;2023-08-17T05:51:49;20.50;88.70
11140;DHT22;5624;49.388;11.350;2023-08-17T05:54:15;20.50;87.80
11140;DHT22;5624;49.388;11.350;2023-08-17T05:56:40;20.70;87.40
11140;DHT22;5624;49.388;11.350;2023-08-17T05:59:10;20.90;86.40
11140;DHT22;5624;49.388;11.350;2023-08-17T06:01:36;21.20;84.50
11140;DHT22;5624;49.388;11.350;2023-08-17T06:04:01;21.60;82.60
11140;DHT22;5624;49.388;11.350;2023-08-17T06:06:27;21.70;81.60
11140;DHT22;5624;49.388;11.350;2023-08-17T06:08:53;21.60;82.30
11140;DHT22;5624;49.388;11.350;2023-08-17T06:11:19;21.70;81.40
11140;DHT22;5624;49.388;11.350;2023-08-17T06:13:44;21.70;82.40
11140;DHT22;5624;49.388;11.350;2023-08-17T06:16:10;21.70;82.40
11140;DHT22;5624;49.388;11.350;2023-08-17T06:18:36;21.80;82.40
11140;DHT22;5624;49.388;11.350;2023-08-17T06:21:01;21.90;81.70
11140;DHT22;5624;49.388;11.350;2023-08-17T06:23:27;22.00;81.00
11140;DHT22;5624;49.388;11.350;2023-08-17T06:25:56;22.10;79.80
11140;DHT22;5624;49.388;11.350;2023-08-17T06:28:22;22.20;79.60
11140;DHT22;5624;49.388;11.350;2023-08-17T06:30:52;22.30;79.20
11140;DHT22;5624;49.388;11.350;2023-08-17T06:33:18;22.50;78.50
11140;DHT22;5624;49.388;11.350;2023-08-17T06:35:44;22.70;78.20
11140;DHT22;5624;49.388;11.350;2023-08-17T06:38:09;23.00;75.60
11140;DHT22;5624;49.388;11.350;2023-08-17T06:40:35;23.20;74.50
11140;DHT22;5624;49.388;11.350;2023-08-17T06:43:00;23.40;73.00
11140;DHT22;5624;49.388;11.350;2023-08-17T06:45:26;23.90;71.60
11140;DHT22;5624;49.388;11.350;2023-08-17T06:47:51;24.30;70.30
11140;DHT22;5624;49.388;11.350;2023-08-17T06:50:17;24.90;68.70
11140;DHT22;5624;49.388;11.350;2023-08-17T06:52:43;25.10;65.50
11140;DHT22;5624;49.388;11.350;2023-08-17T06:55:08;25.50;66.00
11140;DHT22;5624;49.388;11.350;2023-08-17T06:57:35;25.80;63.10
11140;DHT22;5624;49.388;11.350;2023-08-17T07:00:00;26.10;61.20
11140;DHT22;5624;49.388;11.350;2023-08-17T07:02:26;26.40;61.50
11140;DHT22;5624;49.388;11.350;2023-08-17T07:04:52;26.70;60.50
11140;DHT22;5624;49.388;11.350;2023-08-17T07:07:17;27.00;59.70
11140;DHT22;5624;49.388;11.350;2023-08-17T07:09:43;27.80;57.30
11140;DHT22;5624;49.388;11.350;2023-08-17T07:12:08;28.00;55.10
11140;DHT22;5624;49.388;11.350;2023-08-17T07:14:34;28.20;54.40
11140;DHT22;5624;49.388;11.350;2023-08-17T07:16:59;28.80;53.80
11140;DHT22;5624;49.388;11.350;2023-08-17T07:19:25;29.10;51.60
11140;DHT22;5624;49.388;11.350;2023-08-17T07:21:50;29.30;52.10
11140;DHT22;5624;49.388;11.350;2023-08-17T07:24:16;29.90;54.70
11140;DHT22;5624;49.388;11.350;2023-08-17T07:26:42;30.30;51.30
11140;DHT22;5624;49.388;11.350;2023-08-17T07:29:08;30.60;48.10
11140;DHT22;5624;49.388;11.350;2023-08-17T07:31:33;30.90;49.00
11140;DHT22;5624;49.388;11.350;2023-08-17T07:34:01;30.60;48.20
11140;DHT22;5624;49.388;11.350;2023-08-17T07:36:27;30.70;48.80
11140;DHT22;5624;49.388;11.350;2023-08-17T07:38:53;30.90;46.90
11140;DHT22;5624;49.388;11.350;2023-08-17T07:41:18;30.90;49.50
11140;DHT22;5624;49.388;11.350;2023-08-17T07:43:44;31.30;46.70
11140;DHT22;5624;49.388;11.350;2023-08-17T07:46:09;31.60;45.60
11140;DHT22;5624;49.388;11.350;2023-08-17T07:48:35;31.90;45.00
11140;DHT22;5624;49.388;11.350;2023-08-17T07:51:00;31.70;45.10
11140;DHT22;5624;49.388;11.350;2023-08-17T07:53:26;31.00;46.20
11140;DHT22;5624;49.388;11.350;2023-08-17T07:55:51;30.30;48.90
11140;DHT22;5624;49.388;11.350;2023-08-17T07:58:17;29.70;50.70
11140;DHT22;5624;49.388;11.350;2023-08-17T08:00:42;30.10;50.10
11140;DHT22;5624;49.388;11.350;2023-08-17T08:03:08;30.00;49.30
11140;DHT22;5624;49.388;11.350;2023-08-17T08:05:34;30.00;49.70
11140;DHT22;5624;49.388;11.350;2023-08-17T08:07:59;30.70;47.50
11140;DHT22;5624;49.388;11.350;2023-08-17T08:10:25;30.40;48.70
11140;DHT22;5624;49.388;11.350;2023-08-17T08:12:50;30.60;47.90
11140;DHT22;5624;49.388;11.350;2023-08-17T08:15:16;31.00;48.80
11140;DHT22;5624;49.388;11.350;2023-08-17T08:17:41;31.30;48.70
11140;DHT22;5624;49.388;11.350;2023-08-17T08:20:07;31.20;49.00
11140;DHT22;5624;49.388;11.350;2023-08-17T08:22:33;31.40;46.70
11140;DHT22;5624;49.388;11.350;2023-08-17T08:24:58;31.00;47.50
11140;DHT22;5624;49.388;11.350;2023-08-17T08:27:24;30.70;49.00
11140;DHT22;5624;49.388;11.350;2023-08-17T08:29:50;31.40;47.90
11140;DHT22;5624;49.388;11.350;2023-08-17T08:32:15;31.50;45.90
11140;DHT22;5624;49.388;11.350;2023-08-17T08:34:41;31.80;46.30
11140;DHT22;5624;49.388;11.350;2023-08-17T08:37:07;32.20;46.30
11140;DHT22;5624;49.388;11.350;2023-08-17T08:39:32;32.30;45.40
11140;DHT22;5624;49.388;11.350;2023-08-17T08:41:58;32.70;46.70
11140;DHT22;5624;49.388;11.350;2023-08-17T08:44:24;33.10;43.90
11140;DHT22;5624;49.388;11.350;2023-08-17T08:46:50;33.20;42.00
11140;DHT22;5624;49.388;11.350;2023-08-17T08:49:19;32.60;43.80
11140;DHT22;5624;49.388;11.350;2023-08-17T08:51:48;32.70;42.70
11140;DHT22;5624;49.388;11.350;2023-08-17T08:54:20;32.40;43.30
11140;DHT22;5624;49.388;11.350;2023-08-17T08:56:51;32.40;45.50
11140;DHT22;5624;49.388;11.350;2023-08-17T08:59:20;32.60;44.00
11140;DHT22;5624;49.388;11.350;2023-08-17T09:01:47;32.20;45.80
11140;DHT22;5624;49.388;11.350;2023-08-17T09:04:13;31.80;45.30
11140;DHT22;5624;49.388;11.350;2023-08-17T09:06:40;31.50;45.40
11140;DHT22;5624;49.388;11.350;2023-08-17T09:09:07;31.30;46.00
11140;DHT22;5624;49.388;11.350;2023-08-17T09:11:33;31.50;48.50
11140;DHT22;5624;49.388;11.350;2023-08-17T09:13:58;31.40;48.60
11140;DHT22;5624;49.388;11.350;2023-08-17T09:16:24;32.10;45.50
11140;DHT22;5624;49.388;11.350;2023-08-17T09:18:49;32.50;44.60
11140;DHT22;5624;49.388;11.350;2023-08-17T09:21:24;32.10;46.20
11140;DHT22;5624;49.388;11.350;2023-08-17T09:23:56;32.50;47.10
11140;DHT22;5624;49.388;11.350;2023-08-17T09:26:22;32.10;44.90
11140;DHT22;5624;49.388;11.350;2023-08-17T09:28:52;32.40;46.70
11140;DHT22;5624;49.388;11.350;2023-08-17T09:31:25;32.50;44.70
11140;DHT22;5624;49.388;11.350;2023-08-17T09:33:51;32.70;47.50
11140;DHT22;5624;49.388;11.350;2023-08-17T09:36:21;33.20;44.60
11140;DHT22;5624;49.388;11.350;2023-08-17T09:38:48;33.30;44.20
11140;DHT22;5624;49.388;11.350;2023-08-17T09:41:15;33.40;43.80
11140;DHT22;5624;49.388;11.350;2023-08-17T09:43:41;33.10;43.30
11140;DHT22;5624;49.388;11.350;2023-08-17T09:46:06;33.10;45.90
11140;DHT22;5624;49.388;11.350;2023-08-17T09:48:33;33.50;46.40
11140;DHT22;5624;49.388;11.350;2023-08-17T09:50:58;33.90;43.70
11140;DHT22;5624;49.388;11.350;2023-08-17T09:53:25;33.40;42.40
11140;DHT22;5624;49.388;11.350;2023-08-17T09:55:50;33.50;44.70
11140;DHT22;5624;49.388;11.350;2023-08-17T09:58:16;33.20;44.30
11140;DHT22;5624;49.388;11.350;2023-08-17T10:00:49;33.00;42.80
11140;DHT22;5624;49.388;11.350;2023-08-17T10:03:16;32.70;46.50
11140;DHT22;5624;49.388;11.350;2023-08-17T10:05:49;32.90;44.30
11140;DHT22;5624;49.388;11.350;2023-08-17T10:08:19;33.50;47.60
11140;DHT22;5624;49.388;11.350;2023-08-17T10:10:46;33.10;47.30
11140;DHT22;5624;49.388;11.350;2023-08-17T10:13:35;33.20;43.80
11140;DHT22;5624;49.388;11.350;2023-08-17T10:16:09;33.40;44.40
11140;DHT22;5624;49.388;11.350;2023-08-17T10:18:53;33.70;41.40
11140;DHT22;5624;49.388;11.350;2023-08-17T10:21:28;32.50;44.60
11140;DHT22;5624;49.388;11.350;2023-08-17T10:23:58;32.00;44.40
11140;DHT22;5624;49.388;11.350;2023-08-17T10:26:24;32.20;48.10
11140;DHT22;5624;49.388;11.350;2023-08-17T10:28:51;32.60;48.80
11140;DHT22;5624;49.388;11.350;2023-08-17T10:31:17;33.10;47.90
11140;DHT22;5624;49.388;11.350;2023-08-17T10:33:44;32.80;43.80
11140;DHT22;5624;49.388;11.350;2023-08-17T10:36:13;32.50;44.90
11140;DHT22;5624;49.388;11.350;2023-08-17T10:38:39;33.10;47.20
11140;DHT22;5624;49.388;11.350;2023-08-17T10:41:14;33.40;42.40
11140;DHT22;5624;49.388;11.350;2023-08-17T10:43:56;33.60;43.70
11140;DHT22;5624;49.388;11.350;2023-08-17T10:46:36;33.70;42.80
11140;DHT22;5624;49.388;11.350;2023-08-17T10:49:06;33.30;44.60
11140;DHT22;5624;49.388;11.350;2023-08-17T10:51:33;33.20;42.90
11140;DHT22;5624;49.388;11.350;2023-08-17T10:54:01;32.50;44.60
11140;DHT22;5624;49.388;11.350;2023-08-17T10:56:29;32.50;44.80
11140;DHT22;5624;49.388;11.350;2023-08-17T10:58:59;33.00;45.30
11140;DHT22;5624;49.388;11.350;2023-08-17T11:01:32;33.10;43.90
11140;DHT22;5624;49.388;11.350;2023-08-17T11:04:17;33.70;46.10
11140;DHT22;5624;49.388;11.350;2023-08-17T11:06:44;33.40;43.50
11140;DHT22;5624;49.388;11.350;2023-08-17T11:09:10;33.50;45.60
11140;DHT22;5624;49.388;11.350;2023-08-17T11:11:35;33.40;41.80
11140;DHT22;5624;49.388;11.350;2023-08-17T11:14:01;33.30;42.20
11140;DHT22;5624;49.388;11.350;2023-08-17T11:16:27;32.90;43.20
11140;DHT22;5624;49.388;11.350;2023-08-17T11:18:53;33.00;44.60
11140;DHT22;5624;49.388;11.350;2023-08-17T11:21:21;33.00;41.80
11140;DHT22;5624;49.388;11.350;2023-08-17T11:23:46;32.20;43.80
11140;DHT22;5624;49.388;11.350;2023-08-17T11:26:19;32.30;46.20
11140;DHT22;5624;49.388;11.350;2023-08-17T11:28:45;32.70;44.00
11140;DHT22;5624;49.388;11.350;2023-08-17T11:31:13;32.50;46.20
11140;DHT22;5624;49.388;11.350;2023-08-17T11:33:40;32.70;43.60
11140;DHT22;5624;49.388;11.350;2023-08-17T11:36:08;33.20;47.40
11140;DHT22;5624;49.388;11.350;2023-08-17T11:38:35;33.10;41.40
11140;DHT22;5624;49.388;11.350;2023-08-17T11:41:02;33.00;44.40
11140;DHT22;5624;49.388;11.350;2023-08-17T11:43:29;32.90;42.50
11140;DHT22;5624;49.388;11.350;2023-08-17T11:45:55;33.30;43.20
11140;DHT22;5624;49.388;11.350;2023-08-17T11:48:21;33.00;42.60
11140;DHT22;5624;49.388;11.350;2023-08-17T11:50:47;33.10;42.10
11140;DHT22;5624;49.388;11.350;2023-08-17T11:53:13;32.80;41.60
11140;DHT22;5624;49.388;11.350;2023-08-17T11:55:38;32.90;42.30
11140;DHT22;5624;49.388;11.350;2023-08-17T11:58:04;33.10;42.50
11140;DHT22;5624;49.388;11.350;2023-08-17T12:00:35;33.00;42.40
11140;DHT22;5624;49.388;11.350;2023-08-17T12:03:02;33.10;42.60
11140;DHT22;5624;49.388;11.350;2023-08-17T12:05:31;33.20;44.20
11140;DHT22;5624;49.388;11.350;2023-08-17T12:07:58;33.20;42.80
11140;DHT22;5624;49.388;11.350;2023-08-17T12:10:27;32.90;41.60
11140;DHT22;5624;49.388;11.350;2023-08-17T12:12:56;33.10;42.20
11140;DHT22;5624;49.388;11.350;2023-08-17T12:15:22;33.40;43.50
11140;DHT22;5624;49.388;11.350;2023-08-17T12:17:49;33.00;43.80
11140;DHT22;5624;49.388;11.350;2023-08-17T12:20:17;32.90;42.00
11140;DHT22;5624;49.388;11.350;2023-08-17T12:22:43;32.50;44.60
11140;DHT22;5624;49.388;11.350;2023-08-17T12:25:09;32.10;42.60
11140;DHT22;5624;49.388;11.350;2023-08-17T12:27:35;32.20;42.70
11140;DHT22;5624;49.388;11.350;2023-08-17T12:30:01;32.00;44.70
11140;DHT22;5624;49.388;11.350;2023-08-17T12:32:26;32.10;43.20
11140;DHT22;5624;49.388;11.350;2023-08-17T12:34:52;31.90;42.50
11140;DHT22;5624;49.388;11.350;2023-08-17T12:37:20;31.80;42.60
11140;DHT22;5624;49.388;11.350;2023-08-17T12:39:47;31.50;42.90
11140;DHT22;5624;49.388;11.350;2023-08-17T12:42:13;31.10;43.40
11140;DHT22;5624;49.388;11.350;2023-08-17T12:44:39;31.00;43.70
11140;DHT22;5624;49.388;11.350;2023-08-17T12:47:05;30.80;45.30
11140;DHT22;5624;49.388;11.350;2023-08-17T12:49:30;30.60;47.00
11140;DHT22;5624;49.388;11.350;2023-08-17T12:51:56;30.70;45.70
11140;DHT22;5624;49.388;11.350;2023-08-17T12:54:22;30.90;45.10
11140;DHT22;5624;49.388;11.350;2023-08-17T12:56:47;30.80;45.90
11140;DHT22;5624;49.388;11.350;2023-08-17T12:59:13;30.90;45.40
11140;DHT22;5624;49.388;11.350;2023-08-17T13:01:39;31.00;44.80
11140;DHT22;5624;49.388;11.350;2023-08-17T13:04:05;31.20;46.60
11140;DHT22;5624;49.388;11.350;2023-08-17T13:06:31;31.20;45.60
11140;DHT22;5624;49.388;11.350;2023-08-17T13:08:57;31.30;44.60
11140;DHT22;5624;49.388;11.350;2023-08-17T13:11:22;31.30;46.20
11140;DHT22;5624;49.388;11.350;2023-08-17T13:13:48;31.50;46.10
11140;DHT22;5624;49.388;11.350;2023-08-17T13:16:14;31.50;43.20
11140;DHT22;5624;49.388;11.350;2023-08-17T13:18:39;31.20;42.90
11140;DHT22;5624;49.388;11.350;2023-08-17T13:21:05;31.00;44.70
11140;DHT22;5624;49.388;11.350;2023-08-17T13:23:30;30.90;44.70
11140;DHT22;5624;49.388;11.350;2023-08-17T13:25:56;31.00;45.20
11140;DHT22;5624;49.388;11.350;2023-08-17T13:28:21;30.90;44.30
11140;DHT22;5624;49.388;11.350;2023-08-17T13:30:47;30.80;47.10
11140;DHT22;5624;49.388;11.350;2023-08-17T13:33:13;30.80;45.40
11140;DHT22;5624;49.388;11.350;2023-08-17T13:35:39;30.60;48.20
11140;DHT22;5624;49.388;11.350;2023-08-17T13:38:05;30.80;46.20
11140;DHT22;5624;49.388;11.350;2023-08-17T13:40:31;30.90;47.80
11140;DHT22;5624;49.388;11.350;2023-08-17T13:42:56;31.00;45.00
11140;DHT22;5624;49.388;11.350;2023-08-17T13:45:24;31.20;47.00
11140;DHT22;5624;49.388;11.350;2023-08-17T13:47:49;31.20;48.00
11140;DHT22;5624;49.388;11.350;2023-08-17T13:50:15;31.30;47.90
11140;DHT22;5624;49.388;11.350;2023-08-17T13:52:41;31.20;43.80
11140;DHT22;5624;49.388;11.350;2023-08-17T13:55:06;31.00;43.50
11140;DHT22;5624;49.388;11.350;2023-08-17T13:57:32;30.80;46.10
11140;DHT22;5624;49.388;11.350;2023-08-17T13:59:58;30.70;44.30
11140;DHT22;5624;49.388;11.350;2023-08-17T14:02:23;30.70;43.80
11140;DHT22;5624;49.388;11.350;2023-08-17T14:04:49;30.80;44.50
11140;DHT22;5624;49.388;11.350;2023-08-17T14:07:14;31.00;43.70
11140;DHT22;5624;49.388;11.350;2023-08-17T14:09:40;30.90;44.70
11140;DHT22;5624;49.388;11.350;2023-08-17T14:12:06;30.80;44.80
11140;DHT22;5624;49.388;11.350;2023-08-17T14:14:31;30.50;44.50
11140;DHT22;5624;49.388;11.350;2023-08-17T14:16:58;30.30;44.60
11140;DHT22;5624;49.388;11.350;2023-08-17T14:19:24;30.00;46.70
11140;DHT22;5624;49.388;11.350;2023-08-17T14:21:49;30.00;46.50
11140;DHT22;5624;49.388;11.350;2023-08-17T14:24:15;30.00;46.70
11140;DHT22;5624;49.388;11.350;2023-08-17T14:26:41;30.10;48.40
11140;DHT22;5624;49.388;11.350;2023-08-17T14:29:06;30.20;44.40
11140;DHT22;5624;49.388;11.350;2023-08-17T14:31:32;30.20;44.80
11140;DHT22;5624;49.388;11.350;2023-08-17T14:33:57;30.30;46.00
11140;DHT22;5624;49.388;11.350;2023-08-17T14:36:23;30.10;44.10
11140;DHT22;5624;49.388;11.350;2023-08-17T14:38:48;30.10;44.20
11140;DHT22;5624;49.388;11.350;2023-08-17T14:41:14;30.00;44.30
11140;DHT22;5624;49.388;11.350;2023-08-17T14:43:39;30.10;44.10
11140;DHT22;5624;49.388;11.350;2023-08-17T14:46:05;30.00;45.90
11140;DHT22;5624;49.388;11.350;2023-08-17T14:48:31;30.10;45.60
11140;DHT22;5624;49.388;11.350;2023-08-17T14:50:56;30.00;44.50
11140;DHT22;5624;49.388;11.350;2023-08-17T14:53:22;30.00;42.60
11140;DHT22;5624;49.388;11.350;2023-08-17T14:55:48;30.00;43.90
11140;DHT22;5624;49.388;11.350;2023-08-17T14:58:13;29.90;44.80
11140;DHT22;5624;49.388;11.350;2023-08-17T15:00:40;29.80;45.40
11140;DHT22;5624;49.388;11.350;2023-08-17T15:03:06;29.70;44.80
11140;DHT22;5624;49.388;11.350;2023-08-17T15:05:31;29.60;44.40
11140;DHT22;5624;49.388;11.350;2023-08-17T15:08:01;29.70;44.50
11140;DHT22;5624;49.388;11.350;2023-08-17T15:10:26;29.50;45.20
11140;DHT22;5624;49.388;11.350;2023-08-17T15:12:52;29.40;44.40
11140;DHT22;5624;49.388;11.350;2023-08-17T15:15:18;29.20;45.70
11140;DHT22;5624;49.388;11.350;2023-08-17T15:17:44;29.00;45.90
11140;DHT22;5624;49.388;11.350;2023-08-17T15:20:10;28.90;45.40
11140;DHT22;5624;49.388;11.350;2023-08-17T15:22:36;28.80;45.40
11140;DHT22;5624;49.388;11.350;2023-08-17T15:25:02;28.60;45.80